Vg 117 Kungsvik — SBTH — position and weather

sailwx.info

Track history (hours):
 
Tides and Currents Weather Stations Pressure Air Temp Water Temp Dewpoint Dewpoint Depression Visibility Wind Speed Wind Dir Waves Ship Positions

Vg 117 Kungsvik

Last reported at 2017-Feb-15 12:33 UTC. Time now 2017-Feb-22 04:27 UTC.
Position N 57°02' E 011°37'.

Length 17 m; draft 3.7 m.

Type: Fishing. MMSI: 266137000.

Date/timePositionNaut miles runAvg speedWind from/ knotsBaromVisibWave heightAir tempDewpointWater temp
2017-Feb-15 12:33N 57°02' E 011°37'3 2.4
2017-Feb-15 11:31N 57°00' E 011°40'1 1.1
2017-Feb-15 10:32N 56°60' E 011°41'2 1.7
2017-Feb-15 09:32N 57°01' E 011°39'2 2.3
2017-Feb-15 08:33N 56°59' E 011°42'2 1.9
2017-Feb-15 07:33N 57°01' E 011°40'2 2.3
2017-Feb-15 06:32N 57°02' E 011°42'3 2.8
2017-Feb-15 05:29N 57°02' E 011°48'11 7.8
2017-Feb-15 04:06N 57°03' E 012°07'5 0.7
2017-Feb-14 21:26N 57°04' E 012°16'0 0.0
2017-Feb-14 02:08N 57°04' E 012°16'0 0.0
2017-Feb-14 01:17N 57°04' E 012°16'9 1.2
2017-Feb-13 17:28N 56°59' E 012°01'9 1.6
2017-Feb-13 11:30N 56°58' E 011°44'  
Track history (hours):
 
Tides and Currents Weather Stations Pressure Air Temp Water Temp Dewpoint Dewpoint Depression Visibility Wind Speed Wind Dir Waves Ship Positions

Vg 117 Kungsvik

Last reported at 2017-Feb-15 12:33 UTC. Time now 2017-Feb-22 04:27 UTC.
Position N 57°02' E 011°37'.

Length 17 m; draft 3.7 m.

Type: Fishing. MMSI: 266137000.

Date/timePositionNaut miles runAvg speedWind from/ knotsBaromVisibWave heightAir tempDewpointWater temp
2017-Feb-15 12:33N 57°02' E 011°37'3 2.4
2017-Feb-15 11:31N 57°00' E 011°40'1 1.1
2017-Feb-15 10:32N 56°60' E 011°41'2 1.7
2017-Feb-15 09:32N 57°01' E 011°39'2 2.3
2017-Feb-15 08:33N 56°59' E 011°42'2 1.9
2017-Feb-15 07:33N 57°01' E 011°40'2 2.3
2017-Feb-15 06:32N 57°02' E 011°42'3 2.8
2017-Feb-15 05:29N 57°02' E 011°48'11 7.8
2017-Feb-15 04:06N 57°03' E 012°07'5 0.7
2017-Feb-14 21:26N 57°04' E 012°16'0 0.0
2017-Feb-14 02:08N 57°04' E 012°16'0 0.0
2017-Feb-14 01:17N 57°04' E 012°16'9 1.2
2017-Feb-13 17:28N 56°59' E 012°01'9 1.6
2017-Feb-13 11:30N 56°58' E 011°44'  

Dump ship's entire track history